Time;durP1;ratioP1;P1;durP2;ratioP2;P2;SDS_P1;SDS_P2;PMS_P1;PMS_P2;Temp;Humidity;BMP_temperature;BMP_pressure;BME280_temperature;BME280_humidity;BME280_pressure;Samples;Min_cycle;Max_cycle;Signal;HPM_P1;HPM_P2
2023/07/01 00:01:36;;;;;;;11.18;3.50;;;;;;;19.92;72.92;100683.88;5031605;28;20470;-72
2023/07/01 00:04:02;;;;;;;10.55;3.70;;;;;;;19.95;73.51;100680.00;5029402;28;20034;-73
2023/07/01 00:06:27;;;;;;;5.95;3.33;;;;;;;19.88;72.44;100668.97;5028334;28;20041;-73
2023/07/01 00:08:54;;;;;;;11.50;3.78;;;;;;;19.63;72.15;100670.72;5038521;28;20048;-73
2023/07/01 00:11:20;;;;;;;9.52;3.97;;;;;;;19.80;72.17;100662.66;5032610;28;20274;-73
2023/07/01 00:13:46;;;;;;;7.85;3.78;;;;;;;19.73;70.96;100656.19;5029213;28;20029;-73
2023/07/01 00:16:13;;;;;;;10.32;4.22;;;;;;;19.79;70.54;100666.41;5040372;28;20033;-72
2023/07/01 00:18:40;;;;;;;8.77;4.07;;;;;;;19.48;68.99;100658.75;5036437;28;20161;-72
2023/07/01 00:21:07;;;;;;;10.23;4.07;;;;;;;19.56;69.73;100649.81;5038742;28;20029;-73
2023/07/01 00:23:32;;;;;;;7.60;3.50;;;;;;;19.66;69.60;100646.03;5034233;28;20069;-73
2023/07/01 00:25:58;;;;;;;11.18;4.10;;;;;;;19.69;69.50;100646.72;5040078;28;20040;-72
2023/07/01 00:28:24;;;;;;;6.88;3.67;;;;;;;19.78;69.30;100649.31;5033925;28;20045;-73
2023/07/01 00:30:49;;;;;;;13.82;3.90;;;;;;;19.68;69.34;100637.75;5033361;28;20091;-73
2023/07/01 00:33:15;;;;;;;10.90;3.38;;;;;;;19.60;69.56;100635.00;5044622;28;20033;-72
2023/07/01 00:35:40;;;;;;;8.00;3.92;;;;;;;19.59;69.24;100627.88;5033275;28;20185;-72
2023/07/01 00:38:06;;;;;;;7.72;3.72;;;;;;;19.59;70.70;100627.88;5034194;28;20048;-72
2023/07/01 00:40:32;;;;;;;10.52;3.38;;;;;;;19.50;69.55;100615.31;5034154;28;20125;-72
2023/07/01 00:42:57;;;;;;;6.85;3.45;;;;;;;19.49;69.70;100613.63;5036842;28;20124;-73
2023/07/01 00:45:23;;;;;;;13.82;3.72;;;;;;;19.47;69.66;100605.63;5033550;28;20140;-73
2023/07/01 00:47:49;;;;;;;6.38;3.15;;;;;;;19.28;69.65;100612.13;5032502;28;20147;-73
2023/07/01 00:50:15;;;;;;;8.70;3.88;;;;;;;19.51;69.05;100603.47;5039926;28;20029;-72
2023/07/01 00:52:42;;;;;;;10.07;3.30;;;;;;;19.65;69.13;100595.63;5035856;28;20582;-72
2023/07/01 00:55:09;;;;;;;7.05;2.92;;;;;;;19.63;69.00;100596.81;5039964;28;20033;-73
2023/07/01 00:57:35;;;;;;;5.78;3.35;;;;;;;19.66;69.52;100591.06;5033627;28;20144;-72
2023/07/01 01:00:04;;;;;;;7.43;3.35;;;;;;;19.58;67.70;100586.44;5033344;28;20041;-72
2023/07/01 01:02:37;;;;;;;6.65;3.20;;;;;;;19.63;67.15;100586.00;5041911;28;20028;-72
2023/07/01 01:05:13;;;;;;;7.47;3.08;;;;;;;19.57;67.32;100583.88;5037956;28;20177;-72
2023/07/01 01:07:51;;;;;;;12.95;3.55;;;;;;;19.65;67.15;100571.28;5077271;28;20139;-72
2023/07/01 01:10:24;;;;;;;12.40;3.08;;;;;;;19.50;67.26;100575.56;5035909;28;20144;-72
2023/07/01 01:12:56;;;;;;;8.32;3.10;;;;;;;19.54;67.59;100563.44;5035564;28;20149;-72
2023/07/01 01:15:24;;;;;;;5.80;2.78;;;;;;;19.60;67.31;100565.50;5037024;28;20029;-73
2023/07/01 01:17:52;;;;;;;5.80;3.25;;;;;;;19.70;66.90;100568.09;5038657;28;20109;-72
2023/07/01 01:20:20;;;;;;;7.60;3.33;;;;;;;19.48;67.58;100568.63;5035361;28;20061;-72
2023/07/01 01:23:05;;;;;;;6.90;3.33;;;;;;;19.62;67.40;100560.78;5046323;28;20036;-73
2023/07/01 01:25:37;;;;;;;9.48;3.25;;;;;;;19.56;67.09;100553.28;5031046;28;20107;-72
2023/07/01 01:28:04;;;;;;;5.25;2.63;;;;;;;19.70;67.63;100551.84;5039859;28;20033;-72
2023/07/01 01:30:31;;;;;;;8.02;3.40;;;;;;;19.52;67.18;100551.06;5029641;28;20044;-73
2023/07/01 01:32:58;;;;;;;7.55;2.75;;;;;;;19.52;67.54;100545.66;5030642;28;20048;-73
2023/07/01 01:35:25;;;;;;;10.73;2.70;;;;;;;19.39;66.51;100546.97;5032907;28;20051;-72
2023/07/01 01:38:11;;;;;;;8.00;3.05;;;;;;;19.44;65.76;100541.06;5038153;28;20041;-73
2023/07/01 01:40:46;;;;;;;5.90;3.05;;;;;;;19.47;66.59;100539.88;5034881;28;20108;-73
2023/07/01 01:43:27;;;;;;;7.22;2.95;;;;;;;19.51;67.17;100541.25;5031112;28;20072;-72
2023/07/01 01:45:54;;;;;;;6.00;2.90;;;;;;;19.52;65.56;100540.25;5033129;28;20049;-73
2023/07/01 01:48:20;;;;;;;6.00;3.42;;;;;;;19.48;66.54;100530.75;5033368;28;20048;-72
2023/07/01 01:50:49;;;;;;;6.75;2.50;;;;;;;19.49;66.43;100525.19;5035397;28;20052;-72
2023/07/01 01:53:16;;;;;;;7.25;3.10;;;;;;;19.33;67.36;100523.28;5038215;28;20056;-72
2023/07/01 01:55:42;;;;;;;11.93;3.28;;;;;;;19.45;67.38;100515.72;5034242;28;20041;-72
2023/07/01 01:58:08;;;;;;;7.00;3.05;;;;;;;19.29;67.12;100516.50;5033990;28;20033;-72
2023/07/01 02:00:35;;;;;;;8.38;2.90;;;;;;;19.25;67.89;100512.41;5030375;28;20041;-72
2023/07/01 02:03:01;;;;;;;10.88;2.80;;;;;;;19.32;67.61;100507.19;5029886;28;20042;-73
2023/07/01 02:05:26;;;;;;;8.18;3.40;;;;;;;19.40;68.21;100489.16;5031776;28;20030;-72
2023/07/01 02:07:53;;;;;;;15.10;3.80;;;;;;;19.30;68.45;100498.41;5032015;28;20855;-72
2023/07/01 02:10:19;;;;;;;7.38;2.92;;;;;;;19.36;69.30;100486.94;5034373;28;20029;-73
2023/07/01 02:12:46;;;;;;;6.05;2.90;;;;;;;19.44;69.01;100491.56;5031876;28;20037;-72
2023/07/01 02:15:12;;;;;;;10.35;3.33;;;;;;;19.42;69.35;100487.13;5031391;28;20036;-72
2023/07/01 02:17:38;;;;;;;7.65;3.45;;;;;;;19.32;70.33;100481.00;5040363;28;20120;-73
2023/07/01 02:20:04;;;;;;;5.90;3.58;;;;;;;19.34;70.37;100486.28;5041366;28;20041;-74
2023/07/01 02:22:30;;;;;;;4.97;2.35;;;;;;;19.21;69.79;100488.56;5045510;28;20092;-72
2023/07/01 02:24:56;;;;;;;7.07;3.30;;;;;;;19.31;69.67;100483.88;5044259;28;20168;-72
2023/07/01 02:27:22;;;;;;;8.95;3.17;;;;;;;19.21;70.89;100489.41;5032287;28;20155;-72
2023/07/01 02:29:48;;;;;;;8.32;3.17;;;;;;;19.29;70.85;100483.19;5040583;28;20103;-72
2023/07/01 02:32:14;;;;;;;8.65;3.47;;;;;;;19.32;70.58;100472.88;5035710;28;20115;-73
2023/07/01 02:34:39;;;;;;;7.15;3.05;;;;;;;19.37;71.25;100475.94;5037898;28;20572;-72
2023/07/01 02:37:05;;;;;;;5.75;3.20;;;;;;;19.13;71.58;100468.59;5033305;28;20042;-72
2023/07/01 02:39:31;;;;;;;8.90;3.72;;;;;;;19.26;72.93;100460.03;5034639;28;20025;-72
2023/07/01 02:41:56;;;;;;;12.77;3.15;;;;;;;18.92;73.23;100456.47;5036589;28;20506;-73
2023/07/01 02:44:22;;;;;;;8.82;2.95;;;;;;;19.20;72.62;100449.03;5029439;28;20038;-72
2023/07/01 02:46:48;;;;;;;7.90;3.20;;;;;;;19.32;73.22;100451.25;5035987;28;20048;-72
2023/07/01 02:49:13;;;;;;;8.00;3.50;;;;;;;19.25;73.65;100443.97;5063955;28;20471;-72
2023/07/01 02:51:40;;;;;;;7.97;3.92;;;;;;;19.14;73.95;100448.66;5037698;28;20040;-73
2023/07/01 02:54:05;;;;;;;5.75;3.38;;;;;;;19.18;73.82;100445.63;5036032;28;20030;-73
2023/07/01 02:56:31;;;;;;;9.70;3.75;;;;;;;19.25;74.52;100452.09;5032198;28;20052;-73
2023/07/01 02:58:56;;;;;;;13.68;3.80;;;;;;;19.14;75.45;100451.38;5030998;28;20093;-73
2023/07/01 03:01:22;;;;;;;6.88;3.20;;;;;;;19.14;75.65;100445.13;5030777;28;20692;-72
2023/07/01 03:03:49;;;;;;;7.85;3.40;;;;;;;19.09;76.54;100439.34;5068789;28;21009;-72
2023/07/01 03:06:16;;;;;;;7.50;3.22;;;;;;;19.19;77.69;100440.06;5016769;28;20051;-72
2023/07/01 03:08:41;;;;;;;6.25;3.38;;;;;;;19.10;78.24;100438.34;5039249;28;20064;-73
2023/07/01 03:11:07;;;;;;;9.75;3.70;;;;;;;19.19;77.94;100441.94;5064091;27;20136;-72
2023/07/01 03:13:33;;;;;;;7.22;3.40;;;;;;;19.06;78.48;100442.38;5030670;28;20065;-72
2023/07/01 03:16:00;;;;;;;8.90;3.78;;;;;;;19.10;79.65;100441.88;5031930;28;20050;-73
2023/07/01 03:18:26;;;;;;;8.43;3.20;;;;;;;19.13;79.65;100444.28;5033689;28;20115;-72
2023/07/01 03:20:51;;;;;;;7.32;3.42;;;;;;;19.14;80.08;100435.16;5031244;28;20132;-72
2023/07/01 03:23:17;;;;;;;7.85;3.60;;;;;;;19.10;80.92;100430.22;5040856;28;20438;-72
2023/07/01 03:25:43;;;;;;;5.03;3.33;;;;;;;19.03;81.82;100431.91;5030601;28;20136;-73
2023/07/01 03:28:09;;;;;;;12.13;3.08;;;;;;;19.07;81.77;100425.97;5041018;28;20029;-71
2023/07/01 03:30:35;;;;;;;9.95;3.70;;;;;;;18.93;82.12;100413.09;5064930;28;20042;-72
2023/07/01 03:33:01;;;;;;;7.63;3.17;;;;;;;18.96;82.38;100417.31;5040948;28;20021;-72
2023/07/01 03:35:27;;;;;;;8.73;3.63;;;;;;;19.05;82.56;100413.66;5037075;28;20041;-72
2023/07/01 03:37:53;;;;;;;7.15;3.67;;;;;;;18.84;82.45;100406.81;5033803;28;20127;-72
2023/07/01 03:40:18;;;;;;;9.13;4.35;;;;;;;18.98;82.75;100407.22;5033413;28;20776;-72
2023/07/01 03:42:44;;;;;;;11.50;3.35;;;;;;;18.94;82.99;100408.53;5039209;28;20566;-71
2023/07/01 03:45:11;;;;;;;10.13;3.92;;;;;;;19.03;84.00;100410.28;5035708;28;20474;-72
2023/07/01 03:47:43;;;;;;;9.85;3.72;;;;;;;18.89;85.51;100393.66;5035371;28;20036;-72
2023/07/01 03:50:13;;;;;;;8.85;3.75;;;;;;;18.84;86.70;100400.56;5037910;28;20102;-73
2023/07/01 03:52:40;;;;;;;8.57;4.13;;;;;;;18.71;91.66;100400.16;5032047;28;20100;-73
2023/07/01 03:55:07;;;;;;;11.57;3.95;;;;;;;18.58;95.60;100400.56;5033656;28;20053;-74
2023/07/01 03:57:33;;;;;;;10.73;4.38;;;;;;;18.82;94.18;100394.47;5041421;28;20092;-73
2023/07/01 03:59:59;;;;;;;6.95;4.20;;;;;;;18.73;95.11;100393.59;5034796;28;20403;-73
2023/07/01 04:02:25;;;;;;;7.97;3.55;;;;;;;18.62;98.18;100408.19;5035744;28;20595;-73
2023/07/01 04:04:51;;;;;;;9.20;3.70;;;;;;;18.56;100.00;100391.75;5038601;28;20048;-73
2023/07/01 04:07:21;;;;;;;10.27;4.07;;;;;;;18.29;100.00;100399.03;5037192;28;20424;-73
2023/07/01 04:09:50;;;;;;;10.07;3.72;;;;;;;17.90;100.00;100397.69;5047941;28;20116;-73
2023/07/01 04:12:16;;;;;;;5.93;3.70;;;;;;;17.81;100.00;100404.84;5042393;28;20170;-72
2023/07/01 04:14:42;;;;;;;8.57;4.13;;;;;;;17.82;100.00;100406.53;5038853;28;20061;-73
2023/07/01 04:17:08;;;;;;;7.20;4.53;;;;;;;17.82;100.00;100393.94;5038998;28;20049;-73
2023/07/01 04:19:34;;;;;;;10.65;4.47;;;;;;;17.90;100.00;100392.31;5038073;28;20033;-73
2023/07/01 04:22:00;;;;;;;6.68;4.00;;;;;;;18.01;100.00;100386.66;5037751;28;20037;-73
2023/07/01 04:24:26;;;;;;;8.88;4.50;;;;;;;18.06;100.00;100387.03;5043357;28;20629;-72
2023/07/01 04:26:52;;;;;;;9.10;3.92;;;;;;;18.07;100.00;100389.59;5038415;28;20037;-73
2023/07/01 04:29:17;;;;;;;6.47;3.17;;;;;;;18.13;100.00;100379.19;5040395;28;21011;-73
2023/07/01 04:31:43;;;;;;;6.57;3.38;;;;;;;17.96;100.00;100389.81;5036683;28;20391;-73
2023/07/01 04:34:08;;;;;;;8.30;3.40;;;;;;;18.06;100.00;100382.47;5038685;28;20383;-73
2023/07/01 04:36:34;;;;;;;10.38;3.88;;;;;;;17.96;100.00;100389.81;5037877;28;20041;-73
2023/07/01 04:38:59;;;;;;;5.05;3.28;;;;;;;18.11;100.00;100387.41;5042279;28;20887;-72
2023/07/01 04:41:25;;;;;;;13.23;3.58;;;;;;;18.06;100.00;100381.63;5039868;28;20044;-73
2023/07/01 04:43:50;;;;;;;11.32;4.35;;;;;;;17.88;100.00;100383.53;5030038;28;20701;-73
2023/07/01 04:46:16;;;;;;;5.30;3.42;;;;;;;17.91;100.00;100385.91;5032049;28;20034;-72
2023/07/01 04:48:41;;;;;;;8.32;3.95;;;;;;;18.13;100.00;100392.66;5033020;28;20037;-73
2023/07/01 04:51:07;;;;;;;5.20;4.47;;;;;;;18.04;100.00;100381.81;5034937;28;20619;-73
2023/07/01 04:53:32;;;;;;;8.45;3.80;;;;;;;17.94;100.00;100383.75;5035161;28;20077;-72
2023/07/01 04:55:58;;;;;;;8.82;4.45;;;;;;;18.11;100.00;100390.94;5034397;28;20504;-73
2023/07/01 04:58:23;;;;;;;10.20;4.20;;;;;;;17.92;100.00;100382.19;5052748;28;20148;-72
2023/07/01 05:00:50;;;;;;;7.70;4.40;;;;;;;17.89;100.00;100377.97;5050474;28;20037;-72
2023/07/01 05:03:16;;;;;;;8.10;4.38;;;;;;;17.51;100.00;100379.09;5044702;28;20032;-72
2023/07/01 05:05:41;;;;;;;10.02;4.70;;;;;;;17.88;100.00;100376.28;5045824;28;20048;-73
2023/07/01 05:08:07;;;;;;;7.90;4.20;;;;;;;17.94;100.00;100372.94;5043366;28;20474;-72
2023/07/01 05:10:32;;;;;;;5.63;4.70;;;;;;;17.89;100.00;100369.03;5046180;28;20041;-72
2023/07/01 05:12:58;;;;;;;10.50;5.50;;;;;;;17.89;100.00;100374.44;5045736;28;20041;-73
2023/07/01 05:15:24;;;;;;;8.13;5.20;;;;;;;17.94;100.00;100366.72;5045457;28;20044;-72
2023/07/01 05:17:49;;;;;;;9.27;5.05;;;;;;;17.95;100.00;100368.41;5045641;28;20037;-72
2023/07/01 05:20:15;;;;;;;6.55;4.80;;;;;;;18.01;100.00;100376.69;5047402;28;20025;-72
2023/07/01 05:22:40;;;;;;;6.38;4.07;;;;;;;17.98;100.00;100366.25;5039007;28;20048;-72
2023/07/01 05:25:06;;;;;;;8.93;5.20;;;;;;;18.09;100.00;100367.84;5034957;28;20088;-73
2023/07/01 05:27:31;;;;;;;6.57;4.38;;;;;;;18.13;100.00;100369.22;5039862;28;20037;-73
2023/07/01 05:29:57;;;;;;;7.00;4.90;;;;;;;17.79;100.00;100369.97;5038585;28;20043;-72
2023/07/01 05:32:23;;;;;;;6.85;4.68;;;;;;;17.61;100.00;100377.16;5037446;28;20038;-73
2023/07/01 05:34:49;;;;;;;5.38;4.70;;;;;;;17.67;100.00;100370.31;5041345;28;20112;-72
2023/07/01 05:37:15;;;;;;;8.48;4.68;;;;;;;17.77;100.00;100369.28;5032402;28;20045;-72
2023/07/01 05:39:41;;;;;;;9.43;5.53;;;;;;;17.74;100.00;100369.56;5033139;28;21122;-73
2023/07/01 05:42:07;;;;;;;6.00;4.90;;;;;;;17.74;100.00;100366.88;5043389;28;20362;-72
2023/07/01 05:44:32;;;;;;;6.05;4.22;;;;;;;17.65;100.00;100369.63;5045437;28;20037;-72
2023/07/01 05:46:58;;;;;;;7.28;4.63;;;;;;;17.32;100.00;100367.47;5034855;28;20075;-73
2023/07/01 05:49:24;;;;;;;8.75;3.92;;;;;;;17.61;100.00;100367.22;5033067;28;20038;-71
2023/07/01 05:51:49;;;;;;;6.10;3.40;;;;;;;17.53;100.00;100367.16;5032221;28;20045;-70
2023/07/01 05:54:17;;;;;;;7.10;4.25;;;;;;;17.77;100.00;100363.88;5036691;28;20540;-73
2023/07/01 05:56:42;;;;;;;5.65;4.20;;;;;;;17.57;100.00;100362.28;5047081;28;20132;-71
2023/07/01 05:59:08;;;;;;;7.60;4.25;;;;;;;17.78;100.00;100360.19;5045443;28;20036;-73
2023/07/01 06:01:33;;;;;;;4.10;3.40;;;;;;;17.89;100.00;100359.09;5041397;28;20103;-73
2023/07/01 06:03:59;;;;;;;5.43;4.18;;;;;;;17.75;100.00;100355.09;5039280;28;20060;-74
2023/07/01 06:06:25;;;;;;;5.90;4.65;;;;;;;17.85;100.00;100355.84;5032243;28;20037;-71
2023/07/01 06:08:50;;;;;;;5.53;4.30;;;;;;;17.73;100.00;100357.09;5049178;28;20040;-71
2023/07/01 06:11:16;;;;;;;4.15;3.75;;;;;;;17.66;100.00;100364.06;5047236;28;20033;-74
2023/07/01 06:13:46;;;;;;;6.53;4.32;;;;;;;17.74;100.00;100357.94;5047666;28;20855;-73
2023/07/01 06:16:12;;;;;;;5.88;4.35;;;;;;;17.78;100.00;100356.63;5046559;28;20131;-71
2023/07/01 06:18:38;;;;;;;4.38;3.95;;;;;;;17.88;100.00;100359.25;5048705;28;20041;-74
2023/07/01 06:21:06;;;;;;;4.75;4.15;;;;;;;17.79;100.00;100355.63;5037931;28;20034;-73
2023/07/01 06:23:36;;;;;;;5.30;4.13;;;;;;;17.84;100.00;100359.56;5036404;28;20034;-73
2023/07/01 06:26:02;;;;;;;6.30;4.22;;;;;;;17.90;100.00;100352.69;5032126;28;20064;-74
2023/07/01 06:28:28;;;;;;;5.30;4.63;;;;;;;17.95;100.00;100344.13;5031481;28;20897;-74
2023/07/01 06:30:53;;;;;;;5.18;3.97;;;;;;;17.78;100.00;100353.94;5032215;28;20045;-73
2023/07/01 06:33:19;;;;;;;5.65;4.75;;;;;;;17.85;100.00;100355.84;5031927;28;20041;-73
2023/07/01 06:35:45;;;;;;;5.05;4.30;;;;;;;17.89;100.00;100353.69;5039320;28;20033;-73
2023/07/01 06:38:11;;;;;;;5.55;4.38;;;;;;;18.07;100.00;100353.63;5044836;28;20044;-74
2023/07/01 06:40:36;;;;;;;7.72;5.18;;;;;;;18.11;100.00;100352.31;5047197;28;20033;-74
2023/07/01 06:43:05;;;;;;;7.57;5.70;;;;;;;18.08;100.00;100349.97;5044767;28;20041;-73
2023/07/01 06:45:31;;;;;;;7.80;4.72;;;;;;;18.00;100.00;100350.72;5038320;28;20037;-74
2023/07/01 06:47:57;;;;;;;8.30;5.20;;;;;;;18.17;100.00;100338.19;5042462;28;20495;-73
2023/07/01 06:50:23;;;;;;;5.93;4.40;;;;;;;17.99;100.00;100346.34;5040560;28;20032;-73
2023/07/01 06:52:49;;;;;;;6.38;5.40;;;;;;;18.14;100.00;100345.78;5039475;28;20057;-73
2023/07/01 06:55:15;;;;;;;6.30;5.55;;;;;;;18.09;100.00;100344.41;5042342;28;20056;-74
2023/07/01 06:57:41;;;;;;;5.80;5.03;;;;;;;18.24;100.00;100341.97;5045029;28;20029;-73
2023/07/01 07:00:11;;;;;;;5.78;5.22;;;;;;;18.24;100.00;100339.25;5031526;28;20030;-73
2023/07/01 07:02:38;;;;;;;6.05;5.40;;;;;;;18.17;100.00;100335.50;5040726;28;20707;-73
2023/07/01 07:05:08;;;;;;;7.07;6.47;;;;;;;18.07;100.00;100341.03;5031589;28;20038;-73
2023/07/01 07:07:34;;;;;;;5.85;5.13;;;;;;;18.23;100.00;100332.19;5040813;28;20039;-73
2023/07/01 07:09:59;;;;;;;7.88;5.88;;;;;;;17.90;100.00;100333.78;5034282;28;20049;-73
2023/07/01 07:12:25;;;;;;;6.47;5.88;;;;;;;18.06;100.00;100344.69;5042372;28;20103;-74
2023/07/01 07:14:52;;;;;;;8.38;5.10;;;;;;;18.32;100.00;100336.63;5039700;28;20121;-73
2023/07/01 07:17:18;;;;;;;6.00;5.40;;;;;;;18.19;100.00;100330.81;5047736;28;20044;-73
2023/07/01 07:19:43;;;;;;;6.55;5.28;;;;;;;18.14;100.00;100333.13;5039642;28;20029;-73
2023/07/01 07:22:09;;;;;;;7.38;6.20;;;;;;;18.28;100.00;100334.41;5045788;28;20471;-74
2023/07/01 07:24:34;;;;;;;7.05;5.78;;;;;;;18.30;100.00;100330.53;5046999;28;20062;-73
2023/07/01 07:27:01;;;;;;;10.32;6.50;;;;;;;18.12;100.00;100337.81;5037208;28;20047;-73
2023/07/01 07:29:28;;;;;;;6.93;5.95;;;;;;;18.41;100.00;100324.00;5045853;28;20133;-74
2023/07/01 07:31:55;;;;;;;9.45;5.95;;;;;;;18.24;100.00;100339.25;5043484;28;20025;-73
2023/07/01 07:34:21;;;;;;;10.70;5.55;;;;;;;18.40;100.00;100326.88;5036375;28;20038;-73
2023/07/01 07:36:47;;;;;;;6.80;6.18;;;;;;;18.30;100.00;100321.59;5038912;28;20041;-73
2023/07/01 07:39:13;;;;;;;9.45;6.30;;;;;;;18.34;100.00;100320.25;5042659;28;20039;-72
2023/07/01 07:41:40;;;;;;;6.88;5.47;;;;;;;18.36;100.00;100319.09;5046442;28;20851;-73
2023/07/01 07:44:05;;;;;;;6.57;5.97;;;;;;;18.62;100.00;100319.06;5048528;28;20037;-73
2023/07/01 07:46:35;;;;;;;7.32;6.55;;;;;;;18.55;100.00;100312.59;5043944;28;20030;-73
2023/07/01 07:49:01;;;;;;;7.90;6.80;;;;;;;18.55;100.00;100315.31;5039697;28;20041;-74
2023/07/01 07:51:27;;;;;;;6.38;5.72;;;;;;;18.64;100.00;100306.22;5044542;28;20033;-73
2023/07/01 07:53:53;;;;;;;6.07;5.40;;;;;;;18.59;100.00;100310.44;5042280;28;20035;-73
2023/07/01 07:56:18;;;;;;;5.35;4.85;;;;;;;18.69;100.00;100307.63;5041702;28;20045;-73
2023/07/01 07:58:45;;;;;;;6.47;5.88;;;;;;;18.35;100.00;100305.75;5043229;28;20566;-73
2023/07/01 08:01:10;;;;;;;5.43;5.03;;;;;;;18.57;100.00;100313.28;5045842;28;20033;-73
2023/07/01 08:03:36;;;;;;;5.03;4.63;;;;;;;18.61;100.00;100303.00;5042863;28;20041;-73
2023/07/01 08:06:01;;;;;;;5.45;4.95;;;;;;;18.81;100.00;100306.31;5048452;28;20037;-73
2023/07/01 08:08:27;;;;;;;4.90;4.50;;;;;;;19.13;100.00;100297.47;5037624;28;20038;-73
2023/07/01 08:10:53;;;;;;;5.78;4.57;;;;;;;19.03;100.00;100303.03;5047698;28;20041;-73
2023/07/01 08:13:19;;;;;;;5.15;4.13;;;;;;;19.06;100.00;100302.69;5038387;28;20107;-72
2023/07/01 08:15:45;;;;;;;5.72;4.72;;;;;;;19.03;100.00;100291.38;5043668;28;20139;-72
2023/07/01 08:18:11;;;;;;;7.80;4.93;;;;;;;18.94;100.00;100292.34;5041395;28;20033;-72
2023/07/01 08:20:38;;;;;;;5.82;4.78;;;;;;;18.89;100.00;100296.38;5039377;28;20057;-72
2023/07/01 08:23:04;;;;;;;5.68;5.18;;;;;;;18.73;100.00;100296.34;5047405;28;20044;-72
2023/07/01 08:25:30;;;;;;;8.73;7.13;;;;;;;18.54;100.00;100291.16;5039335;28;20108;-73
2023/07/01 08:27:55;;;;;;;6.90;5.47;;;;;;;18.77;100.00;100303.09;5042512;28;20823;-72
2023/07/01 08:30:22;;;;;;;6.30;5.70;;;;;;;18.85;100.00;100295.03;5078627;27;20048;-72
2023/07/01 08:32:48;;;;;;;6.70;6.07;;;;;;;18.67;100.00;100294.25;5040021;28;20049;-72
2023/07/01 08:35:14;;;;;;;6.70;5.70;;;;;;;18.74;100.00;100302.59;5038245;28;20163;-72
2023/07/01 08:37:39;;;;;;;8.00;6.63;;;;;;;18.52;100.00;100298.56;5040794;28;20047;-72
2023/07/01 08:40:07;;;;;;;8.35;6.85;;;;;;;18.79;100.00;100305.66;5054613;28;20033;-72
2023/07/01 08:43:00;;;;;;;8.73;7.43;;;;;;;18.63;100.00;100296.44;5049267;28;20148;-72
2023/07/01 08:45:25;;;;;;;7.18;6.47;;;;;;;18.68;100.00;100304.09;5047031;28;20805;-71
2023/07/01 08:47:59;;;;;;;8.38;7.07;;;;;;;18.72;100.00;100302.72;5041619;28;20038;-71
2023/07/01 08:50:36;;;;;;;7.22;6.53;;;;;;;19.06;100.00;100301.84;5048004;28;20373;-72
2023/07/01 08:53:05;;;;;;;7.78;6.72;;;;;;;19.08;100.00;100303.38;5048068;28;21400;-72
2023/07/01 08:55:32;;;;;;;10.02;7.50;;;;;;;18.75;100.00;100298.88;5050922;28;20025;-72
2023/07/01 08:57:58;;;;;;;8.25;7.15;;;;;;;19.12;100.00;100298.47;5050693;28;20080;-72
2023/07/01 09:00:24;;;;;;;7.90;7.20;;;;;;;18.98;100.00;100291.03;5055110;28;20034;-72
2023/07/01 09:02:51;;;;;;;8.00;7.20;;;;;;;19.12;100.00;100296.59;5044089;28;20149;-72
2023/07/01 09:05:17;;;;;;;7.63;7.03;;;;;;;19.15;100.00;100295.44;5050837;28;20091;-72
2023/07/01 09:07:42;;;;;;;7.55;6.80;;;;;;;19.10;100.00;100300.50;5051748;28;20040;-71
2023/07/01 09:10:11;;;;;;;8.65;7.45;;;;;;;19.15;100.00;100290.88;5050971;28;20033;-72
2023/07/01 09:12:36;;;;;;;7.60;6.80;;;;;;;19.42;100.00;100286.16;5045108;28;20049;-72
2023/07/01 09:15:04;;;;;;;8.27;7.47;;;;;;;19.72;100.00;100291.94;5052044;28;20028;-72
2023/07/01 09:17:33;;;;;;;7.47;6.82;;;;;;;19.68;100.00;100283.34;5050104;28;20143;-71
2023/07/01 09:20:04;;;;;;;9.63;8.70;;;;;;;20.00;100.00;100277.03;5050102;28;20045;-71
2023/07/01 09:22:31;;;;;;;8.27;7.53;;;;;;;19.80;100.00;100283.84;5042093;28;20041;-71
2023/07/01 09:24:57;;;;;;;8.75;7.95;;;;;;;19.58;100.00;100288.91;5045343;28;20048;-72
2023/07/01 09:27:24;;;;;;;9.13;8.32;;;;;;;19.90;100.00;100276.38;5049095;28;20037;-73
2023/07/01 09:29:52;;;;;;;8.68;7.88;;;;;;;19.84;100.00;100277.91;5055602;28;20071;-72
2023/07/01 09:32:29;;;;;;;11.35;10.40;;;;;;;19.52;100.00;100278.72;5044475;28;20896;-72
2023/07/01 09:34:57;;;;;;;9.20;8.50;;;;;;;19.66;100.00;100275.38;5052567;28;20036;-72
2023/07/01 09:37:26;;;;;;;9.23;8.43;;;;;;;19.87;100.00;100287.53;5041213;28;20584;-72
2023/07/01 09:39:52;;;;;;;10.23;9.30;;;;;;;19.89;100.00;100274.69;5040888;28;20033;-73
2023/07/01 09:42:18;;;;;;;10.65;9.85;;;;;;;20.02;100.00;100276.84;5040342;28;20045;-72
2023/07/01 09:45:06;;;;;;;9.52;8.63;;;;;;;20.08;100.00;100263.50;5060645;28;20041;-71
2023/07/01 09:47:33;;;;;;;10.93;10.02;;;;;;;20.16;100.00;100263.47;5043976;28;20029;-72
2023/07/01 09:49:58;;;;;;;10.52;9.63;;;;;;;20.30;100.00;100259.19;5050704;28;20060;-72
2023/07/01 09:52:31;;;;;;;7.63;7.03;;;;;;;20.36;100.00;100260.34;5043111;28;20550;-72
2023/07/01 09:54:59;;;;;;;7.10;6.40;;;;;;;20.33;100.00;100260.69;5037779;28;20086;-72
2023/07/01 09:57:25;;;;;;;9.80;9.00;;;;;;;20.08;100.00;100251.81;5045847;28;20036;-72
2023/07/01 09:59:52;;;;;;;9.10;8.30;;;;;;;19.84;100.00;100264.38;5035628;28;20195;-72
2023/07/01 10:02:18;;;;;;;8.60;7.90;;;;;;;19.71;100.00;100271.31;5041463;28;20033;-73
2023/07/01 10:04:44;;;;;;;8.35;7.53;;;;;;;19.92;100.00;100261.66;5046080;28;20045;-72
2023/07/01 10:07:09;;;;;;;9.75;8.75;;;;;;;20.22;100.00;100256.50;5031662;28;20338;-71
2023/07/01 10:09:36;;;;;;;11.00;10.00;;;;;;;20.12;100.00;100254.00;5055513;28;20032;-72
2023/07/01 10:12:02;;;;;;;8.88;8.07;;;;;;;20.38;100.00;100255.59;5041252;28;20076;-72
2023/07/01 10:14:31;;;;;;;8.27;7.50;;;;;;;20.28;100.00;100249.53;5037679;28;20041;-72
2023/07/01 10:16:57;;;;;;;9.45;8.65;;;;;;;20.51;100.00;100250.50;5040768;28;20141;-72
2023/07/01 10:19:31;;;;;;;10.13;8.98;;;;;;;20.53;100.00;100247.59;5043659;28;20029;-72
2023/07/01 10:22:26;;;;;;;11.02;10.00;;;;;;;20.62;100.00;100241.13;5041149;28;20068;-72
2023/07/01 10:25:02;;;;;;;8.18;7.43;;;;;;;20.49;100.00;100249.00;5049346;28;20482;-72
2023/07/01 10:27:40;;;;;;;9.20;8.40;;;;;;;20.21;100.00;100235.88;5045115;28;20047;-72
2023/07/01 10:30:13;;;;;;;7.75;6.95;;;;;;;20.15;100.00;100244.69;5048614;28;20124;-72
2023/07/01 10:32:43;;;;;;;9.23;8.32;;;;;;;20.17;100.00;100245.34;5049958;28;20134;-72
2023/07/01 10:35:14;;;;;;;9.68;8.93;;;;;;;19.90;100.00;100246.63;5042676;28;20331;-74
2023/07/01 10:37:40;;;;;;;8.32;7.70;;;;;;;20.12;100.00;100256.69;5042022;28;20195;-72
2023/07/01 10:40:29;;;;;;;8.05;7.38;;;;;;;20.24;100.00;100243.66;5046491;28;20048;-73
2023/07/01 10:43:21;;;;;;;7.63;6.72;;;;;;;20.60;100.00;100240.47;5037154;28;20040;-72
2023/07/01 10:46:03;;;;;;;7.57;6.97;;;;;;;20.69;100.00;100234.00;5051223;28;20044;-72
2023/07/01 10:48:29;;;;;;;6.45;5.85;;;;;;;20.87;100.00;100236.44;5036339;28;20044;-72
2023/07/01 10:51:02;;;;;;;9.07;8.40;;;;;;;20.66;100.00;100227.06;5051316;28;20074;-72
2023/07/01 10:53:29;;;;;;;7.35;6.72;;;;;;;20.94;100.00;100235.53;5052997;28;20052;-72
2023/07/01 10:56:10;;;;;;;9.68;6.95;;;;;;;20.97;100.00;100228.06;5040437;28;20040;-72
2023/07/01 10:58:36;;;;;;;7.10;6.07;;;;;;;21.09;100.00;100229.34;5050140;28;20033;-73
2023/07/01 11:01:03;;;;;;;6.43;5.43;;;;;;;21.15;100.00;100215.91;5039354;28;20739;-72
2023/07/01 11:03:35;;;;;;;6.88;6.13;;;;;;;21.18;100.00;100220.94;5047001;28;20078;-72
2023/07/01 11:06:05;;;;;;;7.15;6.38;;;;;;;20.84;100.00;100215.97;5038395;28;20033;-72
2023/07/01 11:08:33;;;;;;;7.00;5.57;;;;;;;20.95;100.00;100220.97;5046520;28;20029;-72
2023/07/01 11:10:59;;;;;;;5.72;5.22;;;;;;;21.07;100.00;100215.97;5039008;28;20049;-72
2023/07/01 11:13:25;;;;;;;5.32;4.82;;;;;;;21.08;100.00;100220.34;5031316;28;20049;-72
2023/07/01 11:16:05;;;;;;;5.32;4.82;;;;;;;21.35;100.00;100218.16;5048222;28;20962;-72
2023/07/01 11:18:42;;;;;;;7.13;4.75;;;;;;;21.61;100.00;100215.03;5041472;28;20147;-72
2023/07/01 11:21:13;;;;;;;5.78;5.28;;;;;;;21.56;100.00;100215.59;5042399;28;20065;-72